Time;durP1;ratioP1;P1;durP2;ratioP2;P2;SDS_P1;SDS_P2;PMS_P1;PMS_P2;Temp;Humidity;BMP_temperature;BMP_pressure;BME280_temperature;BME280_humidity;BME280_pressure;Samples;Min_cycle;Max_cycle;Signal;HPM_P1;HPM_P2
2021/01/01 00:01:14;;;;;;;49.77;35.60;;;6.40;99.90;;;;;;5051895;28;20591;-64
2021/01/01 00:03:40;;;;;;;45.50;30.43;;;6.50;99.90;;;;;;5051328;28;20205;-65
2021/01/01 00:06:09;;;;;;;44.37;31.13;;;6.50;99.90;;;;;;5051378;28;20221;-66
2021/01/01 00:08:36;;;;;;;45.67;31.73;;;6.50;99.90;;;;;;5051110;28;20233;-65
2021/01/01 00:11:02;;;;;;;70.43;46.37;;;6.60;99.90;;;;;;5051483;28;20198;-66
2021/01/01 00:13:28;;;;;;;77.07;51.57;;;6.70;99.90;;;;;;5051127;28;20259;-65
2021/01/01 00:15:54;;;;;;;69.03;48.07;;;6.70;99.90;;;;;;5051409;28;20212;-65
2021/01/01 00:18:21;;;;;;;58.27;41.07;;;6.60;99.90;;;;;;5050900;28;20229;-65
2021/01/01 00:20:48;;;;;;;48.30;34.60;;;6.60;99.90;;;;;;5051198;28;20789;-65
2021/01/01 00:23:14;;;;;;;45.53;32.10;;;6.50;99.90;;;;;;5051027;28;20206;-65
2021/01/01 00:25:40;;;;;;;44.67;32.70;;;6.50;99.90;;;;;;5051131;28;20673;-65
2021/01/01 00:28:06;;;;;;;37.93;28.07;;;6.40;99.90;;;;;;5050968;28;20220;-66
2021/01/01 00:30:33;;;;;;;36.97;27.10;;;6.40;99.90;;;;;;5051276;28;20213;-64
2021/01/01 00:32:59;;;;;;;40.67;29.43;;;6.30;99.90;;;;;;5051020;28;20696;-64
2021/01/01 00:35:26;;;;;;;35.00;26.07;;;6.30;99.90;;;;;;5050420;28;20964;-64
2021/01/01 00:37:52;;;;;;;29.43;22.83;;;6.30;99.90;;;;;;5050546;28;20229;-64
2021/01/01 00:40:19;;;;;;;35.30;24.67;;;6.30;99.90;;;;;;5051396;28;20650;-64
2021/01/01 00:42:45;;;;;;;32.87;24.23;;;6.30;99.90;;;;;;5051305;28;20307;-64
2021/01/01 00:45:11;;;;;;;33.60;23.23;;;6.40;99.90;;;;;;5050577;28;20670;-64
2021/01/01 00:47:38;;;;;;;32.77;23.33;;;6.40;99.90;;;;;;5050985;28;20226;-64
2021/01/01 00:50:05;;;;;;;32.77;22.63;;;6.50;99.90;;;;;;5050944;28;20213;-64
2021/01/01 00:52:33;;;;;;;31.83;23.17;;;6.60;99.90;;;;;;5050991;28;20680;-65
2021/01/01 00:54:59;;;;;;;35.00;23.23;;;6.60;99.90;;;;;;5050790;28;20669;-65
2021/01/01 00:57:25;;;;;;;31.07;22.33;;;6.60;99.90;;;;;;5050806;28;20237;-65
2021/01/01 00:59:51;;;;;;;29.93;21.97;;;6.70;99.90;;;;;;5050649;28;20206;-64
2021/01/01 01:02:18;;;;;;;30.93;22.40;;;6.70;99.90;;;;;;5050786;28;20674;-65
2021/01/01 01:04:44;;;;;;;29.10;20.73;;;6.50;99.90;;;;;;5050483;28;20208;-64
2021/01/01 01:07:10;;;;;;;30.53;20.67;;;6.30;99.90;;;;;;5050660;28;20233;-64
2021/01/01 01:09:38;;;;;;;27.07;20.27;;;6.20;99.90;;;;;;5050341;28;20205;-64
2021/01/01 01:12:05;;;;;;;30.90;21.63;;;6.20;99.90;;;;;;5050708;28;20236;-65
2021/01/01 01:14:31;;;;;;;28.73;22.10;;;6.30;99.90;;;;;;5050490;28;20209;-65
2021/01/01 01:16:57;;;;;;;28.77;21.60;;;6.30;99.90;;;;;;5050462;28;20251;-64
2021/01/01 01:19:24;;;;;;;29.63;22.17;;;6.50;99.90;;;;;;5050417;28;20703;-64
2021/01/01 01:21:50;;;;;;;33.30;23.43;;;6.50;99.90;;;;;;5050402;28;20213;-64
2021/01/01 01:24:17;;;;;;;31.00;22.40;;;6.60;99.90;;;;;;5049922;28;20213;-65
2021/01/01 01:26:45;;;;;;;30.33;20.90;;;6.70;99.90;;;;;;5050391;28;20283;-65
2021/01/01 01:29:11;;;;;;;24.53;17.17;;;6.80;99.90;;;;;;5050351;28;20209;-65
2021/01/01 01:31:38;;;;;;;19.27;13.53;;;6.80;99.90;;;;;;5050525;28;20209;-65
2021/01/01 01:34:04;;;;;;;15.07;11.60;;;6.80;99.90;;;;;;5050603;28;20209;-65
2021/01/01 01:36:30;;;;;;;15.80;11.80;;;6.90;99.90;;;;;;5050518;28;20275;-65
2021/01/01 01:38:56;;;;;;;16.53;11.23;;;6.90;99.90;;;;;;5050296;28;20229;-65
2021/01/01 01:41:23;;;;;;;15.97;12.23;;;6.80;99.90;;;;;;5050626;28;20217;-65
2021/01/01 01:43:50;;;;;;;16.67;11.77;;;6.90;99.90;;;;;;5049954;28;20673;-65
2021/01/01 01:46:16;;;;;;;17.00;12.40;;;6.90;99.90;;;;;;5050216;28;20756;-65
2021/01/01 01:48:43;;;;;;;19.67;14.93;;;6.90;99.90;;;;;;5050045;28;20213;-65
2021/01/01 01:51:10;;;;;;;22.37;16.90;;;7.00;99.90;;;;;;5050311;28;20256;-65
2021/01/01 01:53:39;;;;;;;26.63;18.70;;;6.90;99.90;;;;;;5050061;28;20212;-65
2021/01/01 01:56:07;;;;;;;26.33;18.97;;;7.00;99.90;;;;;;5050236;28;20309;-65
2021/01/01 01:58:34;;;;;;;28.43;21.23;;;6.90;99.90;;;;;;5049958;28;20226;-65
2021/01/01 02:01:01;;;;;;;27.90;20.90;;;6.80;99.90;;;;;;5050134;28;20210;-65
2021/01/01 02:03:28;;;;;;;28.97;22.23;;;6.70;99.90;;;;;;5049881;28;20201;-65
2021/01/01 02:05:55;;;;;;;30.03;21.27;;;6.70;99.90;;;;;;5050492;28;20217;-65
2021/01/01 02:08:21;;;;;;;29.07;21.13;;;6.80;99.90;;;;;;5050385;28;20585;-65
2021/01/01 02:10:50;;;;;;;30.77;20.67;;;6.60;99.90;;;;;;5050281;28;20212;-65
2021/01/01 02:13:16;;;;;;;27.57;20.83;;;6.60;99.90;;;;;;5051949;28;20209;-65
2021/01/01 02:15:42;;;;;;;28.53;19.23;;;6.60;99.90;;;;;;5053225;28;20206;-65
2021/01/01 02:18:10;;;;;;;30.17;20.00;;;6.70;99.90;;;;;;5053164;28;20229;-65
2021/01/01 02:20:37;;;;;;;26.00;18.90;;;6.80;99.90;;;;;;5054118;28;20201;-65
2021/01/01 02:23:04;;;;;;;25.63;18.77;;;6.90;99.90;;;;;;5053570;28;20210;-65
2021/01/01 02:25:30;;;;;;;23.43;18.40;;;7.00;99.90;;;;;;5053287;28;20202;-65
2021/01/01 02:27:57;;;;;;;25.13;18.10;;;7.10;99.90;;;;;;5053119;28;20278;-65
2021/01/01 02:30:23;;;;;;;25.40;19.00;;;7.10;99.90;;;;;;5053248;28;20217;-65
2021/01/01 02:32:49;;;;;;;24.13;18.33;;;7.20;99.90;;;;;;5053153;28;20217;-63
2021/01/01 02:35:15;;;;;;;22.90;17.30;;;7.30;99.90;;;;;;5053063;28;20367;-64
2021/01/01 02:37:41;;;;;;;22.43;18.33;;;7.30;99.90;;;;;;5053050;28;20275;-64
2021/01/01 02:40:09;;;;;;;24.03;18.23;;;7.40;99.90;;;;;;5053088;28;20202;-66
2021/01/01 02:42:36;;;;;;;26.07;18.03;;;7.40;99.90;;;;;;5052868;28;20628;-63
2021/01/01 02:45:03;;;;;;;23.80;18.07;;;7.40;99.90;;;;;;5052563;28;20263;-64
2021/01/01 02:47:30;;;;;;;22.93;17.27;;;7.40;99.90;;;;;;5052772;28;20226;-64
2021/01/01 02:49:56;;;;;;;22.83;17.60;;;7.40;99.90;;;;;;5052746;28;20228;-63
2021/01/01 02:52:22;;;;;;;26.80;17.87;;;7.40;99.90;;;;;;5052718;28;20263;-65
2021/01/01 02:54:49;;;;;;;27.80;19.13;;;7.40;99.90;;;;;;5052469;28;20213;-64
2021/01/01 02:57:16;;;;;;;26.67;19.00;;;7.40;99.90;;;;;;5052648;28;20221;-64
2021/01/01 02:59:42;;;;;;;27.37;19.20;;;7.40;99.90;;;;;;5052371;28;20217;-63
2021/01/01 03:02:08;;;;;;;26.03;17.60;;;7.40;99.90;;;;;;5052533;28;20205;-64
2021/01/01 03:04:34;;;;;;;23.57;18.70;;;7.40;99.90;;;;;;5052678;28;20205;-63
2021/01/01 03:07:00;;;;;;;28.90;18.57;;;7.40;99.90;;;;;;5052796;28;20229;-64
2021/01/01 03:09:26;;;;;;;30.83;20.63;;;7.40;99.90;;;;;;5052449;28;20206;-64
2021/01/01 03:11:53;;;;;;;29.30;20.63;;;7.40;99.90;;;;;;5052734;28;20442;-64
2021/01/01 03:14:20;;;;;;;28.77;22.10;;;7.40;99.90;;;;;;5052251;28;20216;-64
2021/01/01 03:16:46;;;;;;;30.60;21.33;;;7.40;99.90;;;;;;5082704;22;20231;-63
2021/01/01 03:19:12;;;;;;;30.67;20.67;;;7.40;99.90;;;;;;5073545;28;20225;-63
2021/01/01 03:21:38;;;;;;;28.40;21.37;;;7.40;99.90;;;;;;5074309;28;20201;-63
2021/01/01 03:24:05;;;;;;;27.30;20.43;;;7.40;99.90;;;;;;5074252;28;20212;-63
2021/01/01 03:26:31;;;;;;;26.63;20.30;;;7.40;99.90;;;;;;5074500;28;20225;-63
2021/01/01 03:28:57;;;;;;;27.13;19.57;;;7.40;99.90;;;;;;5073477;28;20201;-63
2021/01/01 03:31:24;;;;;;;24.73;19.10;;;7.40;99.90;;;;;;5073771;28;20664;-63
2021/01/01 03:33:51;;;;;;;28.60;19.57;;;7.40;99.90;;;;;;5072651;28;20208;-63
2021/01/01 03:36:17;;;;;;;28.77;19.47;;;7.40;99.90;;;;;;5073040;28;20226;-63
2021/01/01 03:38:43;;;;;;;25.73;18.90;;;7.40;99.90;;;;;;5072844;28;20236;-63
2021/01/01 03:41:09;;;;;;;23.33;17.77;;;7.50;99.90;;;;;;5073004;28;20209;-63
2021/01/01 03:43:35;;;;;;;23.50;17.80;;;7.50;99.90;;;;;;5072866;28;20201;-63
2021/01/01 03:46:01;;;;;;;18.50;15.00;;;7.50;99.90;;;;;;5073435;28;20212;-63
2021/01/01 03:48:29;;;;;;;22.47;15.83;;;7.50;99.90;;;;;;5073604;28;20205;-63
2021/01/01 03:50:55;;;;;;;20.77;14.87;;;7.50;99.90;;;;;;5072781;28;20209;-63
2021/01/01 03:53:21;;;;;;;20.20;14.53;;;7.50;99.90;;;;;;5072756;28;20208;-63
2021/01/01 03:55:47;;;;;;;17.53;14.13;;;7.50;99.90;;;;;;5072170;28;20672;-64
2021/01/01 03:58:14;;;;;;;19.43;14.13;;;7.40;99.90;;;;;;5071722;28;20229;-64
2021/01/01 04:00:40;;;;;;;15.40;12.63;;;7.50;99.90;;;;;;5072301;28;20211;-64
2021/01/01 04:03:06;;;;;;;17.80;13.33;;;7.40;99.90;;;;;;5072756;28;20755;-63
2021/01/01 04:05:33;;;;;;;23.67;16.97;;;7.40;99.90;;;;;;5072610;28;20232;-63
2021/01/01 04:07:59;;;;;;;25.57;16.23;;;7.30;99.90;;;;;;5072716;28;20220;-64
2021/01/01 04:10:25;;;;;;;15.20;11.87;;;7.20;99.90;;;;;;5072124;28;20205;-63
2021/01/01 04:12:52;;;;;;;15.03;11.07;;;7.10;99.90;;;;;;5072253;28;20216;-63
2021/01/01 04:15:18;;;;;;;13.90;9.73;;;7.10;99.90;;;;;;5073060;28;20232;-64
2021/01/01 04:17:44;;;;;;;12.47;9.50;;;7.10;99.90;;;;;;5072859;28;20225;-63
2021/01/01 04:20:11;;;;;;;13.67;9.43;;;7.10;99.90;;;;;;5072712;28;20201;-63
2021/01/01 04:22:38;;;;;;;14.00;9.40;;;7.00;99.90;;;;;;5073442;28;20276;-63
2021/01/01 04:25:05;;;;;;;12.80;9.57;;;7.10;99.90;;;;;;5072545;28;20257;-64
2021/01/01 04:27:32;;;;;;;12.33;9.13;;;7.10;99.90;;;;;;5072319;28;20227;-64
2021/01/01 04:29:58;;;;;;;16.50;11.90;;;7.20;99.90;;;;;;5072737;28;20211;-63
2021/01/01 04:32:24;;;;;;;18.47;11.87;;;7.20;99.90;;;;;;5073144;28;20224;-63
2021/01/01 04:34:50;;;;;;;15.60;11.50;;;7.00;99.90;;;;;;5072464;28;20258;-63
2021/01/01 04:37:16;;;;;;;11.93;9.07;;;7.10;99.90;;;;;;5072448;28;20727;-63
2021/01/01 04:39:43;;;;;;;10.13;7.60;;;7.00;99.90;;;;;;5072283;28;20250;-64
2021/01/01 04:42:10;;;;;;;14.10;9.77;;;7.00;99.90;;;;;;5072409;28;20205;-63
2021/01/01 04:44:37;;;;;;;10.93;8.27;;;7.00;99.90;;;;;;5071773;28;20201;-63
2021/01/01 04:47:04;;;;;;;11.63;8.63;;;7.10;99.90;;;;;;5071769;28;20225;-64
2021/01/01 04:49:31;;;;;;;11.53;8.50;;;7.10;99.90;;;;;;5071174;28;20204;-63
2021/01/01 04:52:01;;;;;;;11.40;8.77;;;7.20;99.90;;;;;;5071517;28;20209;-63
2021/01/01 04:54:32;;;;;;;15.73;11.13;;;7.20;99.90;;;;;;5070939;28;20279;-63
2021/01/01 04:57:00;;;;;;;15.50;11.07;;;7.20;99.90;;;;;;5071167;28;20708;-63
2021/01/01 04:59:26;;;;;;;11.77;8.70;;;7.30;99.90;;;;;;5071072;28;20247;-63
2021/01/01 05:01:52;;;;;;;14.50;10.83;;;7.20;99.90;;;;;;5071236;28;20231;-63
2021/01/01 05:04:18;;;;;;;21.17;14.27;;;7.10;99.90;;;;;;5071070;28;20239;-63
2021/01/01 05:06:45;;;;;;;18.20;13.43;;;7.10;99.90;;;;;;5072213;28;20221;-63
2021/01/01 05:09:12;;;;;;;17.83;12.47;;;6.90;99.90;;;;;;5073381;28;20208;-63
2021/01/01 05:11:38;;;;;;;17.00;12.27;;;6.90;99.90;;;;;;5072272;28;20250;-63
2021/01/01 05:14:07;;;;;;;17.53;11.67;;;6.90;99.90;;;;;;5071967;28;20201;-63
2021/01/01 05:16:34;;;;;;;16.37;11.53;;;6.90;99.90;;;;;;5072817;28;20665;-63
2021/01/01 05:19:09;;;;;;;15.73;11.20;;;7.00;99.90;;;;;;5072744;28;20224;-63
2021/01/01 05:21:35;;;;;;;11.93;8.70;;;7.00;99.90;;;;;;5072475;28;20638;-63
2021/01/01 05:24:05;;;;;;;11.20;8.20;;;7.00;99.90;;;;;;5071785;28;20205;-62
2021/01/01 05:26:32;;;;;;;11.20;7.73;;;7.10;99.90;;;;;;5071733;28;20225;-63
2021/01/01 05:29:05;;;;;;;12.47;7.07;;;7.00;99.90;;;;;;5071678;28;20201;-63
2021/01/01 05:31:32;;;;;;;11.23;8.23;;;7.00;99.90;;;;;;5072348;28;20266;-63
2021/01/01 05:34:01;;;;;;;9.77;7.40;;;7.10;99.90;;;;;;5071188;28;20200;-64
2021/01/01 05:36:33;;;;;;;9.43;7.00;;;7.10;99.90;;;;;;5071303;28;20228;-63
2021/01/01 05:39:01;;;;;;;9.70;6.97;;;7.10;99.90;;;;;;5070700;28;20213;-64
2021/01/01 05:41:33;;;;;;;10.90;7.37;;;7.20;99.90;;;;;;5070992;28;20205;-63
2021/01/01 05:44:07;;;;;;;14.73;10.10;;;7.10;99.90;;;;;;5070563;28;20205;-63
2021/01/01 05:46:33;;;;;;;14.13;10.53;;;7.10;99.90;;;;;;5070462;28;20224;-64
2021/01/01 05:49:00;;;;;;;12.97;10.27;;;7.10;99.90;;;;;;5073650;28;20201;-64
2021/01/01 05:51:26;;;;;;;14.30;10.40;;;7.00;99.90;;;;;;5074718;28;20204;-62
2021/01/01 05:54:10;;;;;;;12.47;9.30;;;7.00;99.90;;;;;;5074266;28;20212;-63
2021/01/01 05:56:37;;;;;;;14.13;9.73;;;7.00;99.90;;;;;;5074400;28;20283;-63
2021/01/01 05:59:04;;;;;;;12.70;8.87;;;7.00;99.90;;;;;;5073733;28;20230;-63
2021/01/01 06:01:35;;;;;;;11.23;7.93;;;7.10;99.90;;;;;;5074299;28;20213;-64
2021/01/01 06:04:03;;;;;;;9.93;7.20;;;7.10;99.90;;;;;;5074218;28;20681;-63
2021/01/01 06:06:32;;;;;;;11.37;8.50;;;7.10;99.90;;;;;;5074088;28;20258;-63
2021/01/01 06:09:03;;;;;;;9.73;7.40;;;7.20;99.90;;;;;;5073921;28;20594;-64
2021/01/01 06:11:34;;;;;;;12.20;8.23;;;7.20;99.90;;;;;;5074381;28;20212;-63
2021/01/01 06:14:04;;;;;;;9.80;7.80;;;7.10;99.90;;;;;;5073695;28;20208;-63
2021/01/01 06:16:37;;;;;;;11.93;8.37;;;6.90;99.90;;;;;;5073812;28;20365;-62
2021/01/01 06:19:10;;;;;;;11.00;8.27;;;6.80;99.90;;;;;;5073516;28;20232;-62
2021/01/01 06:21:42;;;;;;;10.90;7.80;;;6.80;99.90;;;;;;5073648;28;20643;-62
2021/01/01 06:24:14;;;;;;;10.07;7.70;;;6.80;99.90;;;;;;5072959;28;20243;-62
2021/01/01 06:26:42;;;;;;;9.83;7.43;;;6.80;99.90;;;;;;5073869;28;20263;-62
2021/01/01 06:29:09;;;;;;;9.67;7.70;;;6.80;99.90;;;;;;5073496;28;20201;-63
2021/01/01 06:31:37;;;;;;;9.83;7.93;;;6.50;99.90;;;;;;5073595;28;20692;-63
2021/01/01 06:34:22;;;;;;;9.20;7.33;;;6.30;99.90;;;;;;5073104;28;20205;-63
2021/01/01 06:36:49;;;;;;;8.77;6.63;;;6.30;99.90;;;;;;5073370;28;20598;-62
2021/01/01 06:39:39;;;;;;;9.07;7.20;;;6.30;99.90;;;;;;5073270;28;20229;-62
2021/01/01 06:42:06;;;;;;;8.20;6.10;;;6.40;99.90;;;;;;5073428;28;20219;-62
2021/01/01 06:44:34;;;;;;;7.10;5.60;;;6.40;99.90;;;;;;5073318;28;20215;-62
2021/01/01 06:47:02;;;;;;;7.50;5.77;;;6.50;99.90;;;;;;5073103;28;20225;-62
2021/01/01 06:49:33;;;;;;;6.77;5.70;;;6.40;99.90;;;;;;5073052;28;20200;-62
2021/01/01 06:52:23;;;;;;;6.30;5.13;;;6.50;99.90;;;;;;5073331;28;20204;-62
2021/01/01 06:55:03;;;;;;;6.27;4.93;;;6.60;99.90;;;;;;5058360;28;20208;-62
2021/01/01 06:57:30;;;;;;;5.47;4.43;;;6.60;99.90;;;;;;5073845;28;20229;-62
2021/01/01 06:59:57;;;;;;;5.50;4.53;;;6.50;99.90;;;;;;5074277;28;20253;-62
2021/01/01 07:02:28;;;;;;;5.30;4.23;;;6.60;99.90;;;;;;5074167;28;20688;-62
2021/01/01 07:04:55;;;;;;;4.77;4.07;;;6.60;99.90;;;;;;5074414;28;20205;-62
2021/01/01 07:07:41;;;;;;;4.63;3.70;;;6.60;99.90;;;;;;5073683;28;20229;-63
2021/01/01 07:10:08;;;;;;;4.90;3.60;;;6.70;99.90;;;;;;5074435;28;20224;-63
2021/01/01 07:12:35;;;;;;;4.37;3.97;;;6.70;99.90;;;;;;5074258;28;20672;-62
2021/01/01 07:15:01;;;;;;;4.43;4.03;;;6.70;99.90;;;;;;5073393;28;20212;-62
2021/01/01 07:17:46;;;;;;;4.87;3.90;;;6.70;99.90;;;;;;5073372;28;20244;-65
2021/01/01 07:20:14;;;;;;;3.93;3.53;;;6.70;99.90;;;;;;5073317;28;20250;-63
2021/01/01 07:22:40;;;;;;;7.23;5.57;;;6.70;99.90;;;;;;5072947;28;20818;-63
2021/01/01 07:25:07;;;;;;;6.67;5.20;;;6.70;99.90;;;;;;5072779;28;20212;-63
2021/01/01 07:27:35;;;;;;;8.63;5.53;;;6.60;99.90;;;;;;5072724;28;20236;-63
2021/01/01 07:30:10;;;;;;;6.63;5.07;;;6.70;99.90;;;;;;5073022;28;20212;-63
2021/01/01 07:32:38;;;;;;;4.53;3.80;;;6.70;99.90;;;;;;5073031;28;20212;-63
2021/01/01 07:35:08;;;;;;;3.97;3.57;;;6.70;99.90;;;;;;5072232;28;20224;-63
2021/01/01 07:37:37;;;;;;;4.43;3.50;;;6.70;99.90;;;;;;5072752;28;20271;-63
2021/01/01 07:40:04;;;;;;;5.10;4.10;;;6.70;99.90;;;;;;5072896;28;20231;-63
2021/01/01 07:42:30;;;;;;;5.33;3.60;;;6.70;99.90;;;;;;5072764;28;20209;-68
2021/01/01 07:44:56;;;;;;;4.00;3.60;;;6.60;99.90;;;;;;5072587;28;20205;-63
2021/01/01 07:47:22;;;;;;;4.20;3.60;;;6.70;99.90;;;;;;5072415;28;20232;-63
2021/01/01 07:49:50;;;;;;;3.67;3.30;;;6.70;99.90;;;;;;5072414;28;20738;-63
2021/01/01 07:52:16;;;;;;;5.53;4.73;;;6.70;99.90;;;;;;5072428;28;20672;-63
2021/01/01 07:54:48;;;;;;;3.93;3.53;;;6.70;99.90;;;;;;5072186;28;20216;-63
2021/01/01 07:57:20;;;;;;;4.50;4.00;;;6.70;99.90;;;;;;5072522;28;20232;-63
2021/01/01 07:59:48;;;;;;;4.20;3.60;;;6.70;99.90;;;;;;5071769;28;20601;-63
2021/01/01 08:02:15;;;;;;;4.57;3.77;;;6.80;99.90;;;;;;5072330;28;20246;-63
2021/01/01 08:04:42;;;;;;;9.83;7.03;;;6.80;99.90;;;;;;5072341;28;20307;-63
2021/01/01 08:07:09;;;;;;;5.00;4.30;;;6.80;99.90;;;;;;5072729;28;20258;-63
2021/01/01 08:09:45;;;;;;;4.53;3.50;;;6.80;99.90;;;;;;5072004;28;20372;-63
2021/01/01 08:12:13;;;;;;;6.03;3.70;;;6.80;99.90;;;;;;5072851;28;20204;-63
2021/01/01 08:14:48;;;;;;;5.60;4.17;;;6.80;99.90;;;;;;5071910;28;20209;-63
2021/01/01 08:17:22;;;;;;;7.90;5.87;;;6.80;99.90;;;;;;5071949;28;20612;-63
2021/01/01 08:19:49;;;;;;;4.17;3.77;;;6.80;99.90;;;;;;5071762;28;20714;-63
2021/01/01 08:22:22;;;;;;;4.63;3.80;;;6.90;99.90;;;;;;5072137;28;20208;-62
2021/01/01 08:24:51;;;;;;;4.20;3.70;;;7.00;99.90;;;;;;5072544;28;20668;-63
2021/01/01 08:27:18;;;;;;;4.70;3.80;;;7.00;99.90;;;;;;5071824;28;20258;-64
2021/01/01 08:29:45;;;;;;;17.30;11.60;;;7.10;99.90;;;;;;5072027;28;20208;-63
2021/01/01 08:32:13;;;;;;;8.03;5.53;;;7.20;99.90;;;;;;5072684;28;20266;-64
2021/01/01 08:34:40;;;;;;;6.67;5.07;;;7.20;99.90;;;;;;5072124;28;20207;-63
2021/01/01 08:37:22;;;;;;;7.93;6.20;;;7.20;99.90;;;;;;5072175;28;20233;-63
2021/01/01 08:39:48;;;;;;;6.93;5.80;;;7.20;99.90;;;;;;5071816;28;20229;-63
2021/01/01 08:42:22;;;;;;;6.30;5.17;;;7.30;99.90;;;;;;5071957;28;20205;-63
2021/01/01 08:44:48;;;;;;;9.93;6.97;;;7.30;99.90;;;;;;5071759;28;20278;-63
2021/01/01 08:47:16;;;;;;;11.33;8.27;;;7.30;99.90;;;;;;5071588;28;20247;-63
2021/01/01 08:49:42;;;;;;;19.43;11.93;;;7.40;99.90;;;;;;5071901;28;20208;-63
2021/01/01 08:52:12;;;;;;;9.83;6.83;;;7.40;99.90;;;;;;5072897;28;20216;-64
2021/01/01 08:54:39;;;;;;;4.17;3.77;;;7.50;99.90;;;;;;5071246;28;20209;-64
2021/01/01 08:57:05;;;;;;;4.97;4.47;;;7.60;99.90;;;;;;5071558;28;20220;-63
2021/01/01 08:59:32;;;;;;;5.63;4.53;;;7.70;99.90;;;;;;5071263;28;20260;-63
2021/01/01 09:02:00;;;;;;;4.70;4.00;;;7.70;99.90;;;;;;5071813;28;20243;-65
2021/01/01 09:04:27;;;;;;;3.90;3.50;;;7.80;99.90;;;;;;5071510;28;20475;-65
2021/01/01 09:06:58;;;;;;;5.20;4.20;;;7.80;99.90;;;;;;5071481;28;20221;-64
2021/01/01 09:09:29;;;;;;;4.67;4.10;;;7.90;99.90;;;;;;5072027;28;20205;-62
2021/01/01 09:12:19;;;;;;;3.60;3.30;;;7.80;99.90;;;;;;5071982;28;20205;-62
2021/01/01 09:14:54;;;;;;;4.20;3.20;;;7.80;99.90;;;;;;5067954;28;20243;-63
2021/01/01 09:17:21;;;;;;;4.43;3.87;;;7.80;99.90;;;;;;5093243;22;20227;-64
2021/01/01 09:19:47;;;;;;;5.53;3.93;;;7.80;99.90;;;;;;5090228;28;20603;-64
2021/01/01 09:22:18;;;;;;;6.27;4.50;;;7.80;99.90;;;;;;5092792;28;20230;-65
2021/01/01 09:24:45;;;;;;;9.40;6.57;;;7.90;99.90;;;;;;5094802;28;20204;-64
2021/01/01 09:27:12;;;;;;;4.37;3.67;;;7.90;99.90;;;;;;5094545;28;20228;-65
2021/01/01 09:29:39;;;;;;;5.97;4.03;;;7.90;99.90;;;;;;5094416;28;20197;-64
2021/01/01 09:32:08;;;;;;;8.97;6.47;;;7.90;99.90;;;;;;5094653;28;20614;-63
2021/01/01 09:34:34;;;;;;;6.63;5.50;;;8.00;99.90;;;;;;5094561;28;20208;-64
2021/01/01 09:37:07;;;;;;;8.57;5.83;;;8.10;99.90;;;;;;5094928;28;20230;-66
2021/01/01 09:39:33;;;;;;;6.80;4.90;;;8.20;99.90;;;;;;5094343;28;20314;-63
2021/01/01 09:41:59;;;;;;;5.75;4.70;;;8.30;99.90;;;;;;5093891;28;20428;-64
2021/01/01 09:44:25;;;;;;;7.47;4.97;;;8.30;99.90;;;;;;5094588;28;20219;-64
2021/01/01 09:46:53;;;;;;;4.63;3.80;;;8.50;99.90;;;;;;5094659;28;20220;-64
2021/01/01 09:49:20;;;;;;;5.20;3.93;;;8.60;99.90;;;;;;5094441;28;20200;-64
2021/01/01 09:51:46;;;;;;;18.33;11.63;;;8.70;99.90;;;;;;5094437;28;20232;-64
2021/01/01 09:54:12;;;;;;;7.27;5.10;;;8.80;99.90;;;;;;5094047;28;20262;-64
2021/01/01 09:56:39;;;;;;;6.90;5.30;;;8.90;99.90;;;;;;5094261;28;20231;-64
2021/01/01 09:59:05;;;;;;;5.13;4.10;;;9.00;99.90;;;;;;5093873;28;20284;-64
2021/01/01 10:01:32;;;;;;;4.70;3.87;;;9.20;99.90;;;;;;5094394;28;20290;-64
2021/01/01 10:04:00;;;;;;;5.77;4.33;;;9.10;99.90;;;;;;5093947;28;20211;-64
2021/01/01 10:06:26;;;;;;;6.23;4.07;;;9.10;99.90;;;;;;5094152;28;20265;-64
2021/01/01 10:08:52;;;;;;;4.63;4.10;;;9.10;99.90;;;;;;5093870;28;20291;-64
2021/01/01 10:11:19;;;;;;;4.27;3.70;;;9.10;99.90;;;;;;5093790;28;20204;-65
2021/01/01 10:13:45;;;;;;;6.97;3.90;;;9.10;99.90;;;;;;5093759;28;20212;-65
2021/01/01 10:16:12;;;;;;;5.43;4.20;;;9.20;99.90;;;;;;5093791;28;20584;-65
2021/01/01 10:18:39;;;;;;;4.50;4.10;;;9.20;99.90;;;;;;5093403;28;20639;-64
2021/01/01 10:21:07;;;;;;;5.20;3.80;;;9.20;99.90;;;;;;5094062;28;20527;-64
2021/01/01 10:23:33;;;;;;;4.43;4.03;;;9.10;99.90;;;;;;5093324;28;20204;-66
2021/01/01 10:26:00;;;;;;;5.60;4.73;;;9.00;99.90;;;;;;5094062;28;20215;-62
2021/01/01 10:28:26;;;;;;;4.57;4.17;;;9.10;99.90;;;;;;5093434;28;20225;-64
2021/01/01 10:30:52;;;;;;;4.40;4.00;;;9.20;99.90;;;;;;5093844;28;20204;-63
2021/01/01 10:33:19;;;;;;;4.97;4.40;;;9.30;99.90;;;;;;5092856;28;20211;-63
2021/01/01 10:35:45;;;;;;;4.60;4.20;;;9.40;99.90;;;;;;5093138;28;20204;-63
2021/01/01 10:38:12;;;;;;;5.00;4.40;;;9.50;99.90;;;;;;5092968;28;20687;-66
2021/01/01 10:40:38;;;;;;;5.87;5.07;;;9.60;99.90;;;;;;5093570;28;20212;-64
2021/01/01 10:43:04;;;;;;;6.87;5.17;;;9.70;99.90;;;;;;5093597;28;20199;-65
2021/01/01 10:45:30;;;;;;;5.07;4.57;;;9.70;99.90;;;;;;5093661;28;20220;-64
2021/01/01 10:47:56;;;;;;;5.83;5.10;;;9.80;99.90;;;;;;5093044;28;20232;-64
2021/01/01 10:50:23;;;;;;;5.00;4.30;;;9.80;99.90;;;;;;5093584;28;20208;-64
2021/01/01 10:52:49;;;;;;;7.93;5.87;;;9.90;99.90;;;;;;5093540;28;20581;-64
2021/01/01 10:55:16;;;;;;;5.67;5.07;;;9.90;99.60;;;;;;5093193;28;20243;-64
2021/01/01 10:57:42;;;;;;;6.57;5.20;;;10.00;99.40;;;;;;5093232;28;20236;-63
2021/01/01 11:00:10;;;;;;;8.93;5.93;;;10.00;99.60;;;;;;5093187;28;20200;-64
2021/01/01 11:02:36;;;;;;;5.50;4.90;;;10.00;99.50;;;;;;5093150;28;20204;-64
2021/01/01 11:05:02;;;;;;;5.93;4.63;;;10.00;99.60;;;;;;5092800;28;20204;-63
2021/01/01 11:07:30;;;;;;;6.13;4.93;;;9.90;99.80;;;;;;5092671;28;20224;-62
2021/01/01 11:09:56;;;;;;;6.47;5.20;;;9.80;99.50;;;;;;5092874;28;20203;-64
2021/01/01 11:12:23;;;;;;;5.63;5.03;;;9.70;99.90;;;;;;5092934;28;20553;-64
2021/01/01 12:21:10;;;;;;;6.63;5.70;;;9.70;99.10;;;;;;5091758;28;20563;-64
2021/01/01 12:23:43;;;;;;;7.03;5.50;;;9.70;99.10;;;;;;5091695;28;20207;-63
2021/01/01 12:26:09;;;;;;;7.80;6.60;;;9.70;99.10;;;;;;5091579;28;20243;-63
2021/01/01 12:28:36;;;;;;;6.47;5.70;;;9.70;98.90;;;;;;5091313;28;20253;-63
2021/01/01 12:31:05;;;;;;;7.90;6.07;;;9.70;98.90;;;;;;5091524;28;20212;-63
2021/01/01 12:33:33;;;;;;;6.83;5.80;;;9.60;98.60;;;;;;5091224;28;20204;-63
2021/01/01 12:35:59;;;;;;;7.00;6.10;;;9.50;98.30;;;;;;5091425;28;20200;-63
2021/01/01 12:38:25;;;;;;;6.43;5.50;;;9.40;98.90;;;;;;5090978;28;20270;-62
2021/01/01 12:40:52;;;;;;;8.90;7.07;;;9.30;98.80;;;;;;5091122;28;20577;-63
2021/01/01 12:43:18;;;;;;;6.97;6.10;;;9.20;99.20;;;;;;5091694;28;20277;-64
2021/01/01 12:45:45;;;;;;;8.00;6.90;;;9.20;99.10;;;;;;5090727;28;20668;-64
2021/01/01 12:48:11;;;;;;;7.53;6.03;;;9.10;99.40;;;;;;5090975;28;20281;-64
2021/01/01 12:50:38;;;;;;;6.93;6.23;;;9.10;99.70;;;;;;5091338;28;20224;-64
2021/01/01 12:53:04;;;;;;;7.30;6.30;;;9.10;99.30;;;;;;5091124;28;20211;-63
2021/01/01 12:55:32;;;;;;;9.23;7.40;;;9.10;99.40;;;;;;5090619;28;20596;-63
2021/01/01 12:57:58;;;;;;;7.60;6.03;;;9.10;99.60;;;;;;5090163;28;20731;-63
2021/01/01 13:00:25;;;;;;;7.50;5.83;;;9.20;99.80;;;;;;5091782;28;20204;-63
2021/01/01 13:02:52;;;;;;;7.70;6.53;;;9.30;99.60;;;;;;5091025;28;20257;-62
2021/01/01 13:05:18;;;;;;;7.97;6.20;;;9.40;99.50;;;;;;5090662;28;20288;-64
2021/01/01 13:07:45;;;;;;;7.47;5.77;;;9.30;99.20;;;;;;5090531;28;20637;-62
2021/01/01 13:10:11;;;;;;;7.90;6.60;;;9.30;99.30;;;;;;5090921;28;20204;-63
2021/01/01 13:12:38;;;;;;;7.07;6.00;;;9.30;99.60;;;;;;5090694;28;20209;-64
2021/01/01 13:15:05;;;;;;;9.63;7.73;;;9.30;99.90;;;;;;5090523;28;20200;-64
2021/01/01 13:17:32;;;;;;;7.80;6.47;;;9.20;99.30;;;;;;5090680;28;20238;-63
2021/01/01 13:19:58;;;;;;;7.27;6.00;;;9.20;99.70;;;;;;5090451;28;20326;-63
2021/01/01 13:22:24;;;;;;;7.90;6.63;;;9.00;99.50;;;;;;5090995;28;20200;-64
2021/01/01 13:24:51;;;;;;;7.60;6.63;;;8.90;99.70;;;;;;5090505;28;20212;-62
2021/01/01 13:27:18;;;;;;;8.63;7.03;;;8.60;99.70;;;;;;5090889;28;20235;-63
2021/01/01 13:29:44;;;;;;;11.00;7.23;;;8.30;99.90;;;;;;5090541;28;20249;-63
2021/01/01 13:32:10;;;;;;;8.30;7.00;;;8.00;99.90;;;;;;5090896;28;20204;-64
2021/01/01 13:34:36;;;;;;;8.47;6.80;;;7.80;99.90;;;;;;5090346;28;20679;-64
2021/01/01 13:37:02;;;;;;;7.83;6.93;;;7.60;99.90;;;;;;5090704;28;20254;-64
2021/01/01 13:39:29;;;;;;;8.37;7.07;;;7.60;99.90;;;;;;5090148;28;20227;-64
2021/01/01 13:41:56;;;;;;;10.07;6.83;;;7.60;99.90;;;;;;5090903;28;20212;-64
2021/01/01 13:44:24;;;;;;;8.97;7.23;;;7.50;99.90;;;;;;5090569;28;20208;-64
2021/01/01 13:46:50;;;;;;;10.87;7.73;;;7.40;99.90;;;;;;5090827;28;20220;-64
2021/01/01 13:49:16;;;;;;;8.63;7.30;;;7.40;99.90;;;;;;5090230;28;20224;-65
2021/01/01 13:51:43;;;;;;;9.07;7.20;;;7.30;99.90;;;;;;5090592;28;20204;-63
2021/01/01 13:54:09;;;;;;;8.93;7.40;;;7.30;99.90;;;;;;5090190;28;20219;-64
2021/01/01 13:56:35;;;;;;;9.97;7.43;;;7.40;99.90;;;;;;5090676;28;21769;-63